sensor_id;sensor_type;location;lat;lon;timestamp;P1;durP1;ratioP1;P2;durP2;ratioP2
10090;SDS011;5084;51.386;6.778;2023-04-01T00:01:17;2.43;;;1.70;;
10090;SDS011;5084;51.386;6.778;2023-04-01T00:03:43;3.47;;;1.77;;
10090;SDS011;5084;51.386;6.778;2023-04-01T00:06:11;2.07;;;1.67;;
10090;SDS011;5084;51.386;6.778;2023-04-01T00:08:38;1.77;;;1.60;;
10090;SDS011;5084;51.386;6.778;2023-04-01T00:11:04;3.37;;;1.67;;
10090;SDS011;5084;51.386;6.778;2023-04-01T00:13:30;2.07;;;1.70;;
10090;SDS011;5084;51.386;6.778;2023-04-01T00:15:57;2.13;;;1.60;;
10090;SDS011;5084;51.386;6.778;2023-04-01T00:18:23;1.87;;;1.77;;
10090;SDS011;5084;51.386;6.778;2023-04-01T00:20:50;2.47;;;1.60;;
10090;SDS011;5084;51.386;6.778;2023-04-01T00:23:17;2.23;;;1.40;;
10090;SDS011;5084;51.386;6.778;2023-04-01T00:25:43;1.50;;;1.40;;
10090;SDS011;5084;51.386;6.778;2023-04-01T00:28:10;1.87;;;1.30;;
10090;SDS011;5084;51.386;6.778;2023-04-01T00:30:37;1.50;;;1.40;;
10090;SDS011;5084;51.386;6.778;2023-04-01T00:33:03;1.77;;;1.40;;
10090;SDS011;5084;51.386;6.778;2023-04-01T00:35:29;1.83;;;1.40;;
10090;SDS011;5084;51.386;6.778;2023-04-01T00:37:57;2.13;;;1.50;;
10090;SDS011;5084;51.386;6.778;2023-04-01T00:40:32;3.17;;;1.50;;
10090;SDS011;5084;51.386;6.778;2023-04-01T00:42:59;2.10;;;1.90;;
10090;SDS011;5084;51.386;6.778;2023-04-01T00:47:55;1.73;;;1.53;;
10090;SDS011;5084;51.386;6.778;2023-04-01T00:50:22;2.37;;;1.53;;
10090;SDS011;5084;51.386;6.778;2023-04-01T00:52:50;2.03;;;1.40;;
10090;SDS011;5084;51.386;6.778;2023-04-01T00:55:16;1.30;;;1.20;;
10090;SDS011;5084;51.386;6.778;2023-04-01T00:57:44;2.90;;;1.30;;
10090;SDS011;5084;51.386;6.778;2023-04-01T01:00:11;1.43;;;1.13;;
10090;SDS011;5084;51.386;6.778;2023-04-01T01:02:41;1.83;;;1.73;;
10090;SDS011;5084;51.386;6.778;2023-04-01T01:05:07;1.83;;;1.30;;
10090;SDS011;5084;51.386;6.778;2023-04-01T01:10:15;1.27;;;1.13;;
10090;SDS011;5084;51.386;6.778;2023-04-01T01:15:23;1.53;;;1.43;;
10090;SDS011;5084;51.386;6.778;2023-04-01T01:18:03;1.50;;;1.37;;
10090;SDS011;5084;51.386;6.778;2023-04-01T01:28:35;2.20;;;1.33;;
10090;SDS011;5084;51.386;6.778;2023-04-01T01:33:54;1.63;;;1.40;;
10090;SDS011;5084;51.386;6.778;2023-04-01T01:36:27;1.57;;;1.20;;
10090;SDS011;5084;51.386;6.778;2023-04-01T01:38:54;2.57;;;1.60;;
10090;SDS011;5084;51.386;6.778;2023-04-01T01:41:21;1.50;;;1.10;;
10090;SDS011;5084;51.386;6.778;2023-04-01T01:43:49;1.83;;;1.30;;
10090;SDS011;5084;51.386;6.778;2023-04-01T01:46:18;1.57;;;1.30;;
10090;SDS011;5084;51.386;6.778;2023-04-01T01:48:45;1.50;;;1.40;;
10090;SDS011;5084;51.386;6.778;2023-04-01T01:51:12;1.40;;;1.30;;
10090;SDS011;5084;51.386;6.778;2023-04-01T01:53:38;1.20;;;1.20;;
10090;SDS011;5084;51.386;6.778;2023-04-01T01:56:04;1.57;;;1.40;;
10090;SDS011;5084;51.386;6.778;2023-04-01T01:58:34;1.60;;;1.50;;
10090;SDS011;5084;51.386;6.778;2023-04-01T02:01:06;1.50;;;1.40;;
10090;SDS011;5084;51.386;6.778;2023-04-01T02:03:35;1.57;;;1.47;;
10090;SDS011;5084;51.386;6.778;2023-04-01T02:06:03;1.50;;;1.40;;
10090;SDS011;5084;51.386;6.778;2023-04-01T02:08:45;1.47;;;1.37;;
10090;SDS011;5084;51.386;6.778;2023-04-01T02:11:13;1.90;;;1.80;;
10090;SDS011;5084;51.386;6.778;2023-04-01T02:13:51;1.60;;;1.50;;
10090;SDS011;5084;51.386;6.778;2023-04-01T02:16:28;1.20;;;1.10;;
10090;SDS011;5084;51.386;6.778;2023-04-01T02:18:57;1.40;;;1.30;;
10090;SDS011;5084;51.386;6.778;2023-04-01T02:21:24;2.33;;;1.47;;
10090;SDS011;5084;51.386;6.778;2023-04-01T02:23:52;1.40;;;1.30;;
10090;SDS011;5084;51.386;6.778;2023-04-01T02:26:19;1.70;;;1.60;;
10090;SDS011;5084;51.386;6.778;2023-04-01T02:28:45;1.27;;;1.27;;
10090;SDS011;5084;51.386;6.778;2023-04-01T02:31:12;2.00;;;1.40;;
10090;SDS011;5084;51.386;6.778;2023-04-01T02:33:38;1.30;;;1.20;;
10090;SDS011;5084;51.386;6.778;2023-04-01T02:36:05;1.60;;;1.17;;
10090;SDS011;5084;51.386;6.778;2023-04-01T02:38:31;1.50;;;1.30;;
10090;SDS011;5084;51.386;6.778;2023-04-01T02:40:59;1.80;;;1.57;;
10090;SDS011;5084;51.386;6.778;2023-04-01T02:43:26;1.17;;;1.17;;
10090;SDS011;5084;51.386;6.778;2023-04-01T02:45:53;1.17;;;1.13;;
10090;SDS011;5084;51.386;6.778;2023-04-01T02:48:19;1.73;;;1.63;;
10090;SDS011;5084;51.386;6.778;2023-04-01T02:50:45;1.70;;;1.60;;
10090;SDS011;5084;51.386;6.778;2023-04-01T02:53:12;1.40;;;1.30;;
10090;SDS011;5084;51.386;6.778;2023-04-01T02:55:38;1.33;;;1.23;;
10090;SDS011;5084;51.386;6.778;2023-04-01T02:58:04;1.50;;;1.40;;
10090;SDS011;5084;51.386;6.778;2023-04-01T03:00:30;1.33;;;1.23;;
10090;SDS011;5084;51.386;6.778;2023-04-01T03:02:56;2.67;;;1.30;;
10090;SDS011;5084;51.386;6.778;2023-04-01T03:05:22;1.70;;;1.20;;
10090;SDS011;5084;51.386;6.778;2023-04-01T03:07:48;1.20;;;1.20;;
10090;SDS011;5084;51.386;6.778;2023-04-01T03:10:14;1.40;;;1.30;;
10090;SDS011;5084;51.386;6.778;2023-04-01T03:12:41;1.50;;;1.40;;
10090;SDS011;5084;51.386;6.778;2023-04-01T03:15:08;1.57;;;1.47;;
10090;SDS011;5084;51.386;6.778;2023-04-01T03:17:35;1.20;;;1.10;;
10090;SDS011;5084;51.386;6.778;2023-04-01T03:20:01;3.03;;;1.20;;
10090;SDS011;5084;51.386;6.778;2023-04-01T03:22:29;1.50;;;1.30;;
10090;SDS011;5084;51.386;6.778;2023-04-01T03:24:56;1.23;;;1.20;;
10090;SDS011;5084;51.386;6.778;2023-04-01T03:27:22;1.60;;;1.50;;
10090;SDS011;5084;51.386;6.778;2023-04-01T03:29:48;1.33;;;1.27;;
10090;SDS011;5084;51.386;6.778;2023-04-01T03:32:14;1.77;;;1.67;;
10090;SDS011;5084;51.386;6.778;2023-04-01T03:34:40;1.07;;;1.07;;
10090;SDS011;5084;51.386;6.778;2023-04-01T03:37:06;1.00;;;1.00;;
10090;SDS011;5084;51.386;6.778;2023-04-01T03:39:32;1.40;;;1.33;;
10090;SDS011;5084;51.386;6.778;2023-04-01T03:41:59;1.53;;;1.43;;
10090;SDS011;5084;51.386;6.778;2023-04-01T03:44:26;1.30;;;1.20;;
10090;SDS011;5084;51.386;6.778;2023-04-01T03:46:52;1.40;;;1.30;;
10090;SDS011;5084;51.386;6.778;2023-04-01T03:49:18;1.73;;;1.30;;
10090;SDS011;5084;51.386;6.778;2023-04-01T03:51:44;1.33;;;1.23;;
10090;SDS011;5084;51.386;6.778;2023-04-01T03:54:10;1.20;;;1.20;;
10090;SDS011;5084;51.386;6.778;2023-04-01T03:56:36;1.40;;;1.30;;
10090;SDS011;5084;51.386;6.778;2023-04-01T03:59:03;1.00;;;1.00;;
10090;SDS011;5084;51.386;6.778;2023-04-01T04:01:30;1.73;;;1.20;;
10090;SDS011;5084;51.386;6.778;2023-04-01T04:03:56;1.10;;;1.10;;
10090;SDS011;5084;51.386;6.778;2023-04-01T04:06:23;1.30;;;1.20;;
10090;SDS011;5084;51.386;6.778;2023-04-01T04:08:49;1.10;;;1.00;;
10090;SDS011;5084;51.386;6.778;2023-04-01T04:11:15;1.40;;;1.30;;
10090;SDS011;5084;51.386;6.778;2023-04-01T04:13:42;1.10;;;1.10;;
10090;SDS011;5084;51.386;6.778;2023-04-01T04:16:08;1.60;;;1.50;;
10090;SDS011;5084;51.386;6.778;2023-04-01T04:18:35;1.10;;;1.10;;
10090;SDS011;5084;51.386;6.778;2023-04-01T04:21:02;1.10;;;1.10;;
10090;SDS011;5084;51.386;6.778;2023-04-01T04:23:28;1.20;;;1.20;;
10090;SDS011;5084;51.386;6.778;2023-04-01T04:28:21;1.30;;;1.10;;
10090;SDS011;5084;51.386;6.778;2023-04-01T04:30:47;1.20;;;1.20;;
10090;SDS011;5084;51.386;6.778;2023-04-01T04:33:13;2.00;;;1.90;;
10090;SDS011;5084;51.386;6.778;2023-04-01T04:35:39;1.50;;;1.37;;
10090;SDS011;5084;51.386;6.778;2023-04-01T04:38:05;1.40;;;1.20;;
10090;SDS011;5084;51.386;6.778;2023-04-01T04:40:31;1.20;;;1.20;;
10090;SDS011;5084;51.386;6.778;2023-04-01T04:42:57;1.50;;;1.40;;
10090;SDS011;5084;51.386;6.778;2023-04-01T04:45:26;2.00;;;1.20;;
10090;SDS011;5084;51.386;6.778;2023-04-01T04:47:52;1.40;;;1.30;;
10090;SDS011;5084;51.386;6.778;2023-04-01T04:50:18;2.83;;;1.30;;
10090;SDS011;5084;51.386;6.778;2023-04-01T04:52:44;1.87;;;1.43;;
10090;SDS011;5084;51.386;6.778;2023-04-01T04:55:10;1.03;;;1.03;;
10090;SDS011;5084;51.386;6.778;2023-04-01T04:57:36;1.40;;;1.30;;
10090;SDS011;5084;51.386;6.778;2023-04-01T05:00:03;1.07;;;1.07;;
10090;SDS011;5084;51.386;6.778;2023-04-01T05:02:29;1.83;;;1.40;;
10090;SDS011;5084;51.386;6.778;2023-04-01T05:04:55;1.10;;;1.10;;
10090;SDS011;5084;51.386;6.778;2023-04-01T05:07:21;0.90;;;0.90;;
10090;SDS011;5084;51.386;6.778;2023-04-01T05:09:47;1.40;;;1.30;;
10090;SDS011;5084;51.386;6.778;2023-04-01T05:12:13;1.20;;;1.20;;
10090;SDS011;5084;51.386;6.778;2023-04-01T05:14:39;1.27;;;1.17;;
10090;SDS011;5084;51.386;6.778;2023-04-01T05:17:08;1.10;;;1.10;;
10090;SDS011;5084;51.386;6.778;2023-04-01T05:19:35;1.60;;;1.40;;
10090;SDS011;5084;51.386;6.778;2023-04-01T05:22:01;1.20;;;1.20;;
10090;SDS011;5084;51.386;6.778;2023-04-01T05:24:27;1.20;;;1.20;;
10090;SDS011;5084;51.386;6.778;2023-04-01T05:26:53;1.30;;;1.30;;
10090;SDS011;5084;51.386;6.778;2023-04-01T05:29:19;1.40;;;1.30;;
10090;SDS011;5084;51.386;6.778;2023-04-01T05:31:45;1.00;;;1.00;;
10090;SDS011;5084;51.386;6.778;2023-04-01T05:34:11;1.40;;;1.30;;
10090;SDS011;5084;51.386;6.778;2023-04-01T05:36:37;1.70;;;1.60;;
10090;SDS011;5084;51.386;6.778;2023-04-01T05:39:03;1.50;;;1.40;;
10090;SDS011;5084;51.386;6.778;2023-04-01T05:41:29;2.80;;;1.37;;
10090;SDS011;5084;51.386;6.778;2023-04-01T05:43:55;1.30;;;1.30;;
10090;SDS011;5084;51.386;6.778;2023-04-01T05:46:21;1.70;;;1.60;;
10090;SDS011;5084;51.386;6.778;2023-04-01T05:48:47;3.47;;;1.73;;
10090;SDS011;5084;51.386;6.778;2023-04-01T05:51:14;1.63;;;1.37;;
10090;SDS011;5084;51.386;6.778;2023-04-01T05:53:40;1.67;;;1.40;;
10090;SDS011;5084;51.386;6.778;2023-04-01T05:56:07;1.47;;;1.37;;
10090;SDS011;5084;51.386;6.778;2023-04-01T05:58:34;1.83;;;1.50;;
10090;SDS011;5084;51.386;6.778;2023-04-01T06:01:01;2.30;;;2.10;;
10090;SDS011;5084;51.386;6.778;2023-04-01T06:03:27;1.57;;;1.40;;
10090;SDS011;5084;51.386;6.778;2023-04-01T06:05:53;1.70;;;1.60;;
10090;SDS011;5084;51.386;6.778;2023-04-01T06:08:19;1.67;;;1.57;;
10090;SDS011;5084;51.386;6.778;2023-04-01T06:13:25;1.70;;;1.60;;
10090;SDS011;5084;51.386;6.778;2023-04-01T06:16:04;1.90;;;1.80;;
10090;SDS011;5084;51.386;6.778;2023-04-01T06:21:17;1.77;;;1.67;;
10090;SDS011;5084;51.386;6.778;2023-04-01T06:23:54;2.13;;;1.90;;
10090;SDS011;5084;51.386;6.778;2023-04-01T06:26:28;2.07;;;1.73;;
10090;SDS011;5084;51.386;6.778;2023-04-01T06:28:59;1.90;;;1.80;;
10090;SDS011;5084;51.386;6.778;2023-04-01T06:31:43;4.17;;;2.50;;
10090;SDS011;5084;51.386;6.778;2023-04-01T06:36:43;1.80;;;1.70;;
10090;SDS011;5084;51.386;6.778;2023-04-01T06:42:12;1.93;;;1.80;;
10090;SDS011;5084;51.386;6.778;2023-04-01T06:44:45;1.90;;;1.80;;
10090;SDS011;5084;51.386;6.778;2023-04-01T06:54:48;2.60;;;1.90;;
10090;SDS011;5084;51.386;6.778;2023-04-01T06:57:28;2.27;;;2.17;;
10090;SDS011;5084;51.386;6.778;2023-04-01T06:59:56;2.50;;;2.30;;
10090;SDS011;5084;51.386;6.778;2023-04-01T07:02:34;2.20;;;2.00;;
10090;SDS011;5084;51.386;6.778;2023-04-01T07:05:04;2.20;;;2.10;;
10090;SDS011;5084;51.386;6.778;2023-04-01T07:07:35;2.57;;;2.37;;
10090;SDS011;5084;51.386;6.778;2023-04-01T07:10:03;2.60;;;2.40;;
10090;SDS011;5084;51.386;6.778;2023-04-01T07:14:57;2.50;;;2.30;;
10090;SDS011;5084;51.386;6.778;2023-04-01T07:17:25;2.63;;;2.43;;
10090;SDS011;5084;51.386;6.778;2023-04-01T07:19:56;2.93;;;2.20;;
10090;SDS011;5084;51.386;6.778;2023-04-01T07:22:27;2.77;;;2.47;;
10090;SDS011;5084;51.386;6.778;2023-04-01T07:24:55;5.30;;;2.37;;
10090;SDS011;5084;51.386;6.778;2023-04-01T07:27:23;2.60;;;2.40;;
10090;SDS011;5084;51.386;6.778;2023-04-01T07:29:49;2.87;;;2.63;;
10090;SDS011;5084;51.386;6.778;2023-04-01T07:37:30;2.50;;;2.30;;
10090;SDS011;5084;51.386;6.778;2023-04-01T07:53:23;3.07;;;2.83;;
10090;SDS011;5084;51.386;6.778;2023-04-01T07:56:01;3.47;;;3.17;;
10090;SDS011;5084;51.386;6.778;2023-04-01T08:01:16;5.37;;;3.93;;
10090;SDS011;5084;51.386;6.778;2023-04-01T08:06:27;3.97;;;3.50;;
10090;SDS011;5084;51.386;6.778;2023-04-01T08:09:02;3.80;;;3.50;;
10090;SDS011;5084;51.386;6.778;2023-04-01T08:11:39;4.33;;;3.93;;
10090;SDS011;5084;51.386;6.778;2023-04-01T08:16:46;4.77;;;4.37;;
10090;SDS011;5084;51.386;6.778;2023-04-01T08:22:04;4.90;;;4.40;;
10090;SDS011;5084;51.386;6.778;2023-04-01T08:24:35;7.03;;;4.80;;
10090;SDS011;5084;51.386;6.778;2023-04-01T08:27:06;5.60;;;4.90;;
10090;SDS011;5084;51.386;6.778;2023-04-01T08:29:42;5.63;;;5.10;;
10090;SDS011;5084;51.386;6.778;2023-04-01T08:35:52;6.63;;;5.60;;
10090;SDS011;5084;51.386;6.778;2023-04-01T08:37:53;7.20;;;4.90;;
10090;SDS011;5084;51.386;6.778;2023-04-01T08:45:56;5.63;;;4.87;;
10090;SDS011;5084;51.386;6.778;2023-04-01T08:49:08;5.77;;;5.00;;
10090;SDS011;5084;51.386;6.778;2023-04-01T08:51:20;5.93;;;5.40;;
10090;SDS011;5084;51.386;6.778;2023-04-01T08:56:25;4.77;;;4.37;;
10090;SDS011;5084;51.386;6.778;2023-04-01T08:59:05;5.70;;;4.27;;
10090;SDS011;5084;51.386;6.778;2023-04-01T09:01:51;5.60;;;4.70;;
10090;SDS011;5084;51.386;6.778;2023-04-01T09:20:17;5.80;;;4.97;;
10090;SDS011;5084;51.386;6.778;2023-04-01T09:28:18;5.20;;;4.70;;
10090;SDS011;5084;51.386;6.778;2023-04-01T09:33:32;5.43;;;4.93;;
10090;SDS011;5084;51.386;6.778;2023-04-01T09:41:15;5.67;;;5.17;;
10090;SDS011;5084;51.386;6.778;2023-04-01T09:43:58;5.57;;;4.67;;
10090;SDS011;5084;51.386;6.778;2023-04-01T09:59:04;5.73;;;5.10;;
10090;SDS011;5084;51.386;6.778;2023-04-01T10:01:39;6.00;;;5.37;;
10090;SDS011;5084;51.386;6.778;2023-04-01T10:21:56;7.60;;;6.80;;
10090;SDS011;5084;51.386;6.778;2023-04-01T10:32:36;7.70;;;6.33;;
10090;SDS011;5084;51.386;6.778;2023-04-01T10:35:20;6.83;;;6.17;;
10090;SDS011;5084;51.386;6.778;2023-04-01T10:45:37;7.53;;;6.83;;
10090;SDS011;5084;51.386;6.778;2023-04-01T11:01:19;8.17;;;7.37;;
10090;SDS011;5084;51.386;6.778;2023-04-01T11:12:02;10.40;;;8.77;;
10090;SDS011;5084;51.386;6.778;2023-04-01T11:17:25;9.00;;;8.13;;
10090;SDS011;5084;51.386;6.778;2023-04-01T11:25:09;8.13;;;7.33;;
10090;SDS011;5084;51.386;6.778;2023-04-01T11:33:00;8.10;;;7.30;;
10090;SDS011;5084;51.386;6.778;2023-04-01T11:40:44;8.27;;;7.47;;
10090;SDS011;5084;51.386;6.778;2023-04-01T11:43:16;7.80;;;7.00;;
10090;SDS011;5084;51.386;6.778;2023-04-01T11:48:19;8.80;;;7.90;;
10090;SDS011;5084;51.386;6.778;2023-04-01T11:51:05;8.50;;;7.63;;
10090;SDS011;5084;51.386;6.778;2023-04-01T12:09:15;7.67;;;6.97;;
10090;SDS011;5084;51.386;6.778;2023-04-01T12:14:26;7.87;;;7.07;;
10090;SDS011;5084;51.386;6.778;2023-04-01T12:17:02;8.83;;;7.00;;
10090;SDS011;5084;51.386;6.778;2023-04-01T12:19:35;7.23;;;6.53;;
10090;SDS011;5084;51.386;6.778;2023-04-01T12:24:47;7.30;;;6.60;;
10090;SDS011;5084;51.386;6.778;2023-04-01T12:29:57;6.60;;;6.00;;
10090;SDS011;5084;51.386;6.778;2023-04-01T12:32:36;7.13;;;6.43;;
10090;SDS011;5084;51.386;6.778;2023-04-01T12:48:21;5.43;;;4.93;;
10090;SDS011;5084;51.386;6.778;2023-04-01T12:53:32;6.13;;;5.63;;
10090;SDS011;5084;51.386;6.778;2023-04-01T12:56:07;6.53;;;5.93;;
10090;SDS011;5084;51.386;6.778;2023-04-01T12:58:42;6.60;;;5.87;;
10090;SDS011;5084;51.386;6.778;2023-04-01T13:04:04;6.53;;;5.83;;
10090;SDS011;5084;51.386;6.778;2023-04-01T13:06:38;6.33;;;5.73;;
10090;SDS011;5084;51.386;6.778;2023-04-01T13:09:11;7.33;;;6.63;;
10090;SDS011;5084;51.386;6.778;2023-04-01T13:11:49;6.43;;;5.83;;
10090;SDS011;5084;51.386;6.778;2023-04-01T13:14:22;7.10;;;6.40;;
10090;SDS011;5084;51.386;6.778;2023-04-01T13:16:54;6.53;;;5.73;;
10090;SDS011;5084;51.386;6.778;2023-04-01T13:19:31;7.70;;;5.93;;
10090;SDS011;5084;51.386;6.778;2023-04-01T13:22:04;8.93;;;6.70;;
10090;SDS011;5084;51.386;6.778;2023-04-01T13:27:18;7.77;;;6.70;;
10090;SDS011;5084;51.386;6.778;2023-04-01T13:35:29;7.90;;;6.00;;
10090;SDS011;5084;51.386;6.778;2023-04-01T13:42:41;6.13;;;5.53;;
10090;SDS011;5084;51.386;6.778;2023-04-01T13:55:28;6.93;;;6.23;;
10090;SDS011;5084;51.386;6.778;2023-04-01T14:00:54;5.23;;;4.73;;
10090;SDS011;5084;51.386;6.778;2023-04-01T14:06:09;5.27;;;4.67;;
10090;SDS011;5084;51.386;6.778;2023-04-01T14:13:31;6.40;;;5.80;;
10090;SDS011;5084;51.386;6.778;2023-04-01T14:16:12;6.23;;;5.63;;
10090;SDS011;5084;51.386;6.778;2023-04-01T14:18:52;6.03;;;5.53;;
10090;SDS011;5084;51.386;6.778;2023-04-01T14:24:31;5.70;;;5.13;;
10090;SDS011;5084;51.386;6.778;2023-04-01T14:32:06;5.13;;;4.63;;
10090;SDS011;5084;51.386;6.778;2023-04-01T14:40:21;5.07;;;4.67;;
10090;SDS011;5084;51.386;6.778;2023-04-01T14:43:08;5.43;;;4.87;;
10090;SDS011;5084;51.386;6.778;2023-04-01T14:48:31;5.43;;;4.93;;
10090;SDS011;5084;51.386;6.778;2023-04-01T14:51:15;7.20;;;5.40;;
10090;SDS011;5084;51.386;6.778;2023-04-01T14:53:43;5.80;;;5.20;;
10090;SDS011;5084;51.386;6.778;2023-04-01T14:56:11;5.90;;;5.40;;
10090;SDS011;5084;51.386;6.778;2023-04-01T14:58:42;6.10;;;5.60;;
10090;SDS011;5084;51.386;6.778;2023-04-01T15:01:13;5.23;;;4.73;;
10090;SDS011;5084;51.386;6.778;2023-04-01T15:08:59;5.33;;;4.80;;
10090;SDS011;5084;51.386;6.778;2023-04-01T15:14:21;9.10;;;5.33;;
10090;SDS011;5084;51.386;6.778;2023-04-01T15:16:58;6.97;;;5.10;;
10090;SDS011;5084;51.386;6.778;2023-04-01T15:23:00;5.90;;;5.40;;
10090;SDS011;5084;51.386;6.778;2023-04-01T15:28:01;5.40;;;4.90;;
10090;SDS011;5084;51.386;6.778;2023-04-01T15:30:33;4.80;;;4.30;;
10090;SDS011;5084;51.386;6.778;2023-04-01T15:33:09;5.60;;;5.10;;
10090;SDS011;5084;51.386;6.778;2023-04-01T15:43:31;4.27;;;3.87;;
10090;SDS011;5084;51.386;6.778;2023-04-01T16:02:18;5.40;;;4.90;;
10090;SDS011;5084;51.386;6.778;2023-04-01T16:05:05;4.33;;;3.93;;
10090;SDS011;5084;51.386;6.778;2023-04-01T16:07:48;4.70;;;4.30;;
10090;SDS011;5084;51.386;6.778;2023-04-01T16:23:50;4.70;;;4.20;;
10090;SDS011;5084;51.386;6.778;2023-04-01T16:31:35;4.47;;;3.80;;
10090;SDS011;5084;51.386;6.778;2023-04-01T16:34:17;4.10;;;3.70;;
10090;SDS011;5084;51.386;6.778;2023-04-01T16:36:46;3.93;;;3.53;;
10090;SDS011;5084;51.386;6.778;2023-04-01T16:39:26;4.17;;;3.77;;
10090;SDS011;5084;51.386;6.778;2023-04-01T16:41:59;3.83;;;3.47;;
10090;SDS011;5084;51.386;6.778;2023-04-01T16:47:49;5.70;;;3.60;;
10090;SDS011;5084;51.386;6.778;2023-04-01T16:50:25;3.70;;;3.40;;
10090;SDS011;5084;51.386;6.778;2023-04-01T16:55:24;4.50;;;4.17;;
10090;SDS011;5084;51.386;6.778;2023-04-01T16:57:59;3.77;;;3.47;;
10090;SDS011;5084;51.386;6.778;2023-04-01T17:00:28;3.90;;;3.60;;
10090;SDS011;5084;51.386;6.778;2023-04-01T17:05:40;3.83;;;3.53;;
10090;SDS011;5084;51.386;6.778;2023-04-01T17:08:19;4.17;;;3.83;;
10090;SDS011;5084;51.386;6.778;2023-04-01T17:18:28;4.37;;;3.97;;
10090;SDS011;5084;51.386;6.778;2023-04-01T17:21:02;4.90;;;4.40;;
10090;SDS011;5084;51.386;6.778;2023-04-01T17:23:36;4.97;;;4.50;;
10090;SDS011;5084;51.386;6.778;2023-04-01T17:26:08;4.57;;;4.20;;
10090;SDS011;5084;51.386;6.778;2023-04-01T17:32:09;3.93;;;3.63;;
10090;SDS011;5084;51.386;6.778;2023-04-01T17:39:30;4.57;;;4.17;;
10090;SDS011;5084;51.386;6.778;2023-04-01T17:58:18;4.57;;;3.93;;
10090;SDS011;5084;51.386;6.778;2023-04-01T18:19:03;5.60;;;4.90;;
10090;SDS011;5084;51.386;6.778;2023-04-01T18:21:38;4.93;;;4.50;;
10090;SDS011;5084;51.386;6.778;2023-04-01T18:24:16;5.23;;;4.83;;
10090;SDS011;5084;51.386;6.778;2023-04-01T18:27:11;5.83;;;5.27;;
10090;SDS011;5084;51.386;6.778;2023-04-01T18:40:17;5.17;;;4.70;;
10090;SDS011;5084;51.386;6.778;2023-04-01T18:42:57;6.07;;;5.47;;
10090;SDS011;5084;51.386;6.778;2023-04-01T18:55:37;5.67;;;5.17;;
10090;SDS011;5084;51.386;6.778;2023-04-01T18:58:18;6.00;;;5.50;;
10090;SDS011;5084;51.386;6.778;2023-04-01T19:01:22;6.60;;;5.90;;
10090;SDS011;5084;51.386;6.778;2023-04-01T19:03:45;7.57;;;6.07;;
10090;SDS011;5084;51.386;6.778;2023-04-01T19:06:15;6.37;;;5.77;;
10090;SDS011;5084;51.386;6.778;2023-04-01T19:08:43;6.33;;;5.73;;
10090;SDS011;5084;51.386;6.778;2023-04-01T19:11:13;6.90;;;6.30;;
10090;SDS011;5084;51.386;6.778;2023-04-01T19:16:35;6.47;;;5.87;;
10090;SDS011;5084;51.386;6.778;2023-04-01T19:19:21;6.77;;;6.07;;
10090;SDS011;5084;51.386;6.778;2023-04-01T19:26:48;6.23;;;5.60;;
10090;SDS011;5084;51.386;6.778;2023-04-01T19:39:53;5.87;;;5.37;;
10090;SDS011;5084;51.386;6.778;2023-04-01T19:45:04;6.03;;;5.50;;
10090;SDS011;5084;51.386;6.778;2023-04-01T19:52:36;6.17;;;5.67;;
10090;SDS011;5084;51.386;6.778;2023-04-01T19:57:46;5.03;;;4.63;;
10090;SDS011;5084;51.386;6.778;2023-04-01T20:00:24;5.53;;;5.03;;
10090;SDS011;5084;51.386;6.778;2023-04-01T20:02:56;4.97;;;4.57;;
10090;SDS011;5084;51.386;6.778;2023-04-01T20:05:45;5.03;;;4.63;;
10090;SDS011;5084;51.386;6.778;2023-04-01T20:08:17;5.03;;;4.63;;
10090;SDS011;5084;51.386;6.778;2023-04-01T20:10:59;4.60;;;4.30;;
10090;SDS011;5084;51.386;6.778;2023-04-01T20:16:07;4.57;;;4.27;;
10090;SDS011;5084;51.386;6.778;2023-04-01T20:18:36;4.57;;;4.17;;
10090;SDS011;5084;51.386;6.778;2023-04-01T20:21:05;4.43;;;4.03;;
10090;SDS011;5084;51.386;6.778;2023-04-01T20:26:11;3.80;;;3.50;;
10090;SDS011;5084;51.386;6.778;2023-04-01T20:31:18;3.90;;;3.60;;
10090;SDS011;5084;51.386;6.778;2023-04-01T20:41:28;3.83;;;3.53;;
10090;SDS011;5084;51.386;6.778;2023-04-01T20:44:09;3.17;;;2.97;;
10090;SDS011;5084;51.386;6.778;2023-04-01T20:46:43;4.20;;;3.90;;
10090;SDS011;5084;51.386;6.778;2023-04-01T20:51:53;3.53;;;3.33;;
10090;SDS011;5084;51.386;6.778;2023-04-01T20:59:41;3.87;;;3.57;;
10090;SDS011;5084;51.386;6.778;2023-04-01T21:07:37;4.07;;;3.73;;
10090;SDS011;5084;51.386;6.778;2023-04-01T21:10:11;3.70;;;3.50;;
10090;SDS011;5084;51.386;6.778;2023-04-01T21:13:00;3.70;;;3.40;;
10090;SDS011;5084;51.386;6.778;2023-04-01T21:20:55;3.70;;;3.40;;
10090;SDS011;5084;51.386;6.778;2023-04-01T21:26:11;4.77;;;3.17;;
10090;SDS011;5084;51.386;6.778;2023-04-01T21:28:41;3.80;;;3.50;;
10090;SDS011;5084;51.386;6.778;2023-04-01T21:41:34;3.47;;;3.27;;
10090;SDS011;5084;51.386;6.778;2023-04-01T21:44:30;3.30;;;3.10;;
10090;SDS011;5084;51.386;6.778;2023-04-01T21:49:40;3.37;;;3.10;;
10090;SDS011;5084;51.386;6.778;2023-04-01T21:52:14;2.80;;;2.60;;
10090;SDS011;5084;51.386;6.778;2023-04-01T21:54:55;2.90;;;2.70;;
10090;SDS011;5084;51.386;6.778;2023-04-01T22:00:17;2.90;;;2.70;;
10090;SDS011;5084;51.386;6.778;2023-04-01T22:05:24;2.70;;;2.50;;
10090;SDS011;5084;51.386;6.778;2023-04-01T22:08:03;2.63;;;2.43;;
10090;SDS011;5084;51.386;6.778;2023-04-01T22:13:18;2.60;;;2.40;;
10090;SDS011;5084;51.386;6.778;2023-04-01T22:15:58;2.20;;;2.10;;
10090;SDS011;5084;51.386;6.778;2023-04-01T22:21:08;2.70;;;2.50;;
10090;SDS011;5084;51.386;6.778;2023-04-01T22:23:52;2.50;;;2.30;;
10090;SDS011;5084;51.386;6.778;2023-04-01T22:26:33;3.10;;;2.80;;
10090;SDS011;5084;51.386;6.778;2023-04-01T22:29:07;3.33;;;3.03;;
10090;SDS011;5084;51.386;6.778;2023-04-01T22:31:41;2.63;;;2.43;;
10090;SDS011;5084;51.386;6.778;2023-04-01T22:36:42;2.30;;;2.20;;
10090;SDS011;5084;51.386;6.778;2023-04-01T22:41:51;2.60;;;2.40;;
10090;SDS011;5084;51.386;6.778;2023-04-01T22:44:34;2.40;;;2.20;;
10090;SDS011;5084;51.386;6.778;2023-04-01T22:47:12;3.00;;;2.80;;
10090;SDS011;5084;51.386;6.778;2023-04-01T22:49:43;3.20;;;3.00;;
10090;SDS011;5084;51.386;6.778;2023-04-01T22:54:39;3.00;;;2.80;;
10090;SDS011;5084;51.386;6.778;2023-04-01T23:04:38;2.67;;;2.47;;
10090;SDS011;5084;51.386;6.778;2023-04-01T23:07:14;2.77;;;2.57;;
10090;SDS011;5084;51.386;6.778;2023-04-01T23:09:45;3.10;;;2.90;;
10090;SDS011;5084;51.386;6.778;2023-04-01T23:12:12;2.63;;;2.43;;
10090;SDS011;5084;51.386;6.778;2023-04-01T23:17:17;2.77;;;2.57;;
10090;SDS011;5084;51.386;6.778;2023-04-01T23:19:52;2.90;;;2.70;;
10090;SDS011;5084;51.386;6.778;2023-04-01T23:22:33;2.87;;;2.67;;
10090;SDS011;5084;51.386;6.778;2023-04-01T23:27:47;2.50;;;2.30;;
10090;SDS011;5084;51.386;6.778;2023-04-01T23:38:31;3.20;;;3.00;;
10090;SDS011;5084;51.386;6.778;2023-04-01T23:40:57;2.90;;;2.70;;
10090;SDS011;5084;51.386;6.778;2023-04-01T23:43:24;2.70;;;2.50;;
10090;SDS011;5084;51.386;6.778;2023-04-01T23:45:52;2.90;;;2.70;;
10090;SDS011;5084;51.386;6.778;2023-04-01T23:48:18;2.80;;;2.60;;
10090;SDS011;5084;51.386;6.778;2023-04-01T23:50:45;3.10;;;2.90;;
10090;SDS011;5084;51.386;6.778;2023-04-01T23:53:18;2.97;;;2.77;;
10090;SDS011;5084;51.386;6.778;2023-04-01T23:55:46;3.03;;;2.83;;
10090;SDS011;5084;51.386;6.778;2023-04-01T23:58:14;2.87;;;2.67;;
